Time;durP1;ratioP1;P1;durP2;ratioP2;P2;SDS_P1;SDS_P2;PMS_P1;PMS_P2;Temp;Humidity;BMP_temperature;BMP_pressure;BME280_temperature;BME280_humidity;BME280_pressure;Samples;Min_cycle;Max_cycle;Signal;HPM_P1;HPM_P2
2022/10/16 00:01:21;;;;;;;1.20;1.10;;;;;;;;;;4899161;29;20049;-59
2022/10/16 00:03:47;;;;;;;0.65;0.65;;;;;;;;;;4898627;29;20081;-59
2022/10/16 00:06:15;;;;;;;3.85;0.77;;;;;;;;;;4899334;29;20108;-59
2022/10/16 00:08:42;;;;;;;1.52;1.00;;;;;;;;;;4897943;29;20045;-60
2022/10/16 00:11:10;;;;;;;1.00;0.90;;;;;;;;;;4897730;29;20047;-60
2022/10/16 00:13:37;;;;;;;3.58;0.95;;;;;;;;;;4898590;29;20466;-60
2022/10/16 00:16:04;;;;;;;0.98;0.85;;;;;;;;;;4899045;29;20053;-59
2022/10/16 00:18:31;;;;;;;1.30;0.73;;;;;;;;;;4898797;29;20041;-59
2022/10/16 00:21:09;;;;;;;0.90;0.90;;;;;;;;;;4898779;29;20052;-58
2022/10/16 00:23:35;;;;;;;1.67;0.80;;;;;;;;;;4898356;29;20048;-59
2022/10/16 00:26:03;;;;;;;1.13;1.02;;;;;;;;;;4898561;29;20398;-59
2022/10/16 00:28:30;;;;;;;2.47;1.40;;;;;;;;;;4898605;29;20045;-59
2022/10/16 00:30:57;;;;;;;2.85;1.23;;;;;;;;;;4898679;29;20045;-60
2022/10/16 00:33:23;;;;;;;1.90;1.60;;;;;;;;;;4896947;29;20108;-60
2022/10/16 00:35:50;;;;;;;3.88;1.30;;;;;;;;;;4898535;29;20053;-60
2022/10/16 00:38:16;;;;;;;1.25;1.15;;;;;;;;;;4898569;29;20048;-60
2022/10/16 00:40:43;;;;;;;1.55;1.30;;;;;;;;;;4898418;29;20080;-60
2022/10/16 00:43:31;;;;;;;1.30;1.20;;;;;;;;;;4897826;29;20489;-59
2022/10/16 00:45:58;;;;;;;1.58;1.45;;;;;;;;;;4898235;29;20056;-59
2022/10/16 00:48:24;;;;;;;0.73;0.73;;;;;;;;;;4898310;29;20049;-57
2022/10/16 00:50:51;;;;;;;2.28;1.20;;;;;;;;;;4898122;29;20405;-59
2022/10/16 00:53:18;;;;;;;4.78;1.00;;;;;;;;;;4896279;29;20100;-59
2022/10/16 00:55:45;;;;;;;0.63;0.63;;;;;;;;;;4898165;29;20056;-59
2022/10/16 00:58:12;;;;;;;1.65;0.88;;;;;;;;;;4898178;29;20462;-59
2022/10/16 01:00:38;;;;;;;0.85;0.80;;;;;;;;;;4898033;29;20067;-58
2022/10/16 01:03:21;;;;;;;0.77;0.70;;;;;;;;;;4897358;29;20044;-60
2022/10/16 01:05:57;;;;;;;1.43;1.03;;;;;;;;;;4896451;29;20104;-58
2022/10/16 01:08:38;;;;;;;1.27;0.70;;;;;;;;;;4897904;29;20586;-59
2022/10/16 01:11:31;;;;;;;1.45;0.82;;;;;;;;;;4897989;29;20040;-58
2022/10/16 01:13:59;;;;;;;1.10;1.00;;;;;;;;;;4895377;29;20478;-59
2022/10/16 01:16:39;;;;;;;0.60;0.60;;;;;;;;;;4897907;29;20045;-58
2022/10/16 01:19:11;;;;;;;2.20;0.90;;;;;;;;;;4898008;29;20048;-58
2022/10/16 01:21:40;;;;;;;2.83;0.90;;;;;;;;;;4897890;29;20113;-58
2022/10/16 01:24:11;;;;;;;1.27;0.90;;;;;;;;;;4896826;29;20116;-59
2022/10/16 01:30:13;;;;;;;1.42;1.10;;;;;;;;;;4877341;29;20033;-63
2022/10/16 01:32:41;;;;;;;4.20;0.93;;;;;;;;;;4877116;29;20049;-63
2022/10/16 01:35:43;;;;;;;1.10;1.00;;;;;;;;;;4862150;29;20514;-63
2022/10/16 01:38:16;;;;;;;1.42;0.88;;;;;;;;;;4871369;29;20112;-63
2022/10/16 01:40:45;;;;;;;3.63;1.52;;;;;;;;;;4878220;29;20056;-63
2022/10/16 01:43:15;;;;;;;2.67;1.30;;;;;;;;;;4876895;29;20087;-64
2022/10/16 01:45:43;;;;;;;1.08;1.08;;;;;;;;;;4878500;29;20052;-63
2022/10/16 01:48:11;;;;;;;2.70;1.10;;;;;;;;;;4878409;29;20040;-63
2022/10/16 01:50:39;;;;;;;2.40;1.10;;;;;;;;;;4878383;29;20041;-63
2022/10/16 01:53:08;;;;;;;1.67;1.40;;;;;;;;;;4876755;29;20087;-63
2022/10/16 01:55:37;;;;;;;1.60;1.50;;;;;;;;;;4878655;29;20041;-63
2022/10/16 01:58:05;;;;;;;3.70;1.85;;;;;;;;;;4878267;29;20120;-63
2022/10/16 02:00:32;;;;;;;1.75;1.45;;;;;;;;;;4877371;29;20041;-63
2022/10/16 02:02:58;;;;;;;2.50;1.42;;;;;;;;;;4877735;29;20498;-63
2022/10/16 02:05:32;;;;;;;4.70;1.20;;;;;;;;;;4879007;29;20045;-63
2022/10/16 02:07:59;;;;;;;1.63;1.08;;;;;;;;;;4879036;29;20041;-63
2022/10/16 02:10:31;;;;;;;1.50;1.00;;;;;;;;;;4878098;29;20125;-62
2022/10/16 02:13:16;;;;;;;1.15;0.90;;;;;;;;;;4877539;29;20095;-60
2022/10/16 02:15:43;;;;;;;3.22;1.10;;;;;;;;;;4877053;29;20110;-60
2022/10/16 02:18:10;;;;;;;2.05;1.00;;;;;;;;;;4879468;29;20076;-61
2022/10/16 02:20:45;;;;;;;1.67;1.10;;;;;;;;;;4882110;29;20498;-60
2022/10/16 02:23:14;;;;;;;4.07;1.30;;;;;;;;;;4880408;29;20098;-59
2022/10/16 02:25:41;;;;;;;2.33;1.10;;;;;;;;;;4881978;29;20048;-59
2022/10/16 02:28:08;;;;;;;2.00;0.98;;;;;;;;;;4881857;29;20093;-60
2022/10/16 02:30:37;;;;;;;2.05;1.00;;;;;;;;;;4880966;29;20041;-60
2022/10/16 02:33:05;;;;;;;2.53;0.98;;;;;;;;;;4880401;29;20083;-61
2022/10/16 02:35:31;;;;;;;2.25;1.13;;;;;;;;;;4880768;29;20495;-60
2022/10/16 02:37:58;;;;;;;1.80;0.90;;;;;;;;;;4882141;29;20043;-60
2022/10/16 02:40:25;;;;;;;2.28;0.80;;;;;;;;;;4880717;29;20080;-59
2022/10/16 02:42:52;;;;;;;3.28;1.20;;;;;;;;;;4881356;29;20053;-61
2022/10/16 02:45:19;;;;;;;2.40;1.10;;;;;;;;;;4880595;29;20057;-60
2022/10/16 02:47:45;;;;;;;1.65;0.98;;;;;;;;;;4880602;29;20105;-60
2022/10/16 02:50:12;;;;;;;1.10;0.85;;;;;;;;;;4881639;29;20505;-61
2022/10/16 02:52:38;;;;;;;2.35;0.70;;;;;;;;;;4879795;29;20072;-59
2022/10/16 02:55:05;;;;;;;0.73;0.68;;;;;;;;;;4880356;29;20089;-59
2022/10/16 02:57:31;;;;;;;0.93;0.70;;;;;;;;;;4864684;29;20088;-60
2022/10/16 02:59:58;;;;;;;1.98;0.77;;;;;;;;;;4880426;29;20044;-60
2022/10/16 03:02:24;;;;;;;1.13;0.60;;;;;;;;;;4879775;29;20080;-61
2022/10/16 03:04:51;;;;;;;1.42;0.80;;;;;;;;;;4881506;29;20083;-62
2022/10/16 03:07:17;;;;;;;3.30;0.85;;;;;;;;;;4881077;29;20045;-61
2022/10/16 03:09:43;;;;;;;1.98;0.70;;;;;;;;;;4880797;29;20041;-61
2022/10/16 03:12:11;;;;;;;2.10;0.60;;;;;;;;;;4880049;29;20562;-61
2022/10/16 03:14:39;;;;;;;1.08;0.75;;;;;;;;;;4881033;29;20041;-60
2022/10/16 03:17:06;;;;;;;2.30;0.63;;;;;;;;;;4879705;29;20151;-61
2022/10/16 03:19:32;;;;;;;1.55;0.80;;;;;;;;;;4864764;29;20055;-59
2022/10/16 03:21:59;;;;;;;2.83;0.70;;;;;;;;;;4880750;29;20041;-61
2022/10/16 03:24:25;;;;;;;0.80;0.50;;;;;;;;;;4864285;29;20057;-61
2022/10/16 03:26:51;;;;;;;0.85;0.70;;;;;;;;;;4879727;29;20065;-60
2022/10/16 03:29:18;;;;;;;2.38;0.73;;;;;;;;;;4879624;29;20103;-60
2022/10/16 03:31:44;;;;;;;2.58;0.60;;;;;;;;;;4879699;29;20135;-61
2022/10/16 03:34:10;;;;;;;1.77;0.60;;;;;;;;;;4879245;29;20049;-58
2022/10/16 03:36:37;;;;;;;3.17;0.70;;;;;;;;;;4880023;29;20165;-60
2022/10/16 03:39:03;;;;;;;2.05;0.80;;;;;;;;;;4880060;29;20136;-61
2022/10/16 03:41:30;;;;;;;0.90;0.60;;;;;;;;;;4879858;29;20053;-61
2022/10/16 03:43:56;;;;;;;1.83;0.70;;;;;;;;;;4879024;29;20060;-59
2022/10/16 03:46:22;;;;;;;1.85;0.75;;;;;;;;;;4880852;29;20077;-60
2022/10/16 03:48:49;;;;;;;1.00;0.63;;;;;;;;;;4879589;29;20045;-59
2022/10/16 03:51:15;;;;;;;0.55;0.55;;;;;;;;;;4879615;29;20112;-59
2022/10/16 03:53:42;;;;;;;1.17;0.80;;;;;;;;;;4880140;29;20045;-61
2022/10/16 03:56:08;;;;;;;3.92;0.63;;;;;;;;;;4880569;29;20041;-60
2022/10/16 03:58:34;;;;;;;2.03;0.57;;;;;;;;;;4879224;29;20049;-60
2022/10/16 04:03:37;;;;;;;3.20;0.90;;;;;;;;;;4857572;29;20121;-59
2022/10/16 04:06:04;;;;;;;2.33;0.60;;;;;;;;;;4860347;29;20079;-60
2022/10/16 04:08:30;;;;;;;1.38;0.80;;;;;;;;;;4861596;29;20101;-59
2022/10/16 04:10:57;;;;;;;1.35;0.82;;;;;;;;;;4861384;29;20141;-59
2022/10/16 04:13:23;;;;;;;1.13;0.70;;;;;;;;;;4892386;29;20080;-59
2022/10/16 04:15:49;;;;;;;0.80;0.60;;;;;;;;;;4879810;29;20068;-59
2022/10/16 04:18:16;;;;;;;1.33;0.52;;;;;;;;;;4879875;29;20072;-59
2022/10/16 04:20:42;;;;;;;2.10;0.80;;;;;;;;;;4879853;29;20080;-59
2022/10/16 04:23:08;;;;;;;2.33;0.60;;;;;;;;;;4879141;29;20083;-59
2022/10/16 04:25:35;;;;;;;1.52;0.80;;;;;;;;;;4879783;29;20045;-59
2022/10/16 04:28:01;;;;;;;1.38;1.10;;;;;;;;;;4879772;29;20559;-59
2022/10/16 04:30:27;;;;;;;2.42;1.30;;;;;;;;;;4879590;29;20045;-59
2022/10/16 04:32:54;;;;;;;1.85;0.88;;;;;;;;;;4879074;29;20124;-60
2022/10/16 04:35:21;;;;;;;1.23;0.90;;;;;;;;;;4879729;29;20080;-60
2022/10/16 04:37:48;;;;;;;1.85;1.00;;;;;;;;;;4878282;29;20073;-59
2022/10/16 04:40:14;;;;;;;1.33;0.90;;;;;;;;;;4879419;29;20471;-60
2022/10/16 04:42:40;;;;;;;4.70;3.40;;;;;;;;;;4879694;29;20079;-60
2022/10/16 04:45:07;;;;;;;19.60;14.57;;;;;;;;;;4880390;29;20076;-60
2022/10/16 04:47:40;;;;;;;4.25;1.25;;;;;;;;;;4879478;29;20057;-60
2022/10/16 04:50:07;;;;;;;1.77;0.70;;;;;;;;;;4879378;29;20072;-60
2022/10/16 04:52:33;;;;;;;4.25;0.90;;;;;;;;;;4908633;29;20045;-60
2022/10/16 04:55:02;;;;;;;2.45;1.08;;;;;;;;;;4879262;29;20406;-59
2022/10/16 04:57:29;;;;;;;3.70;1.30;;;;;;;;;;4879018;29;20521;-60
2022/10/16 04:59:55;;;;;;;2.25;0.90;;;;;;;;;;4879243;29;20070;-59
2022/10/16 05:02:22;;;;;;;7.63;2.25;;;;;;;;;;4908354;29;20522;-59
2022/10/16 05:04:48;;;;;;;3.15;1.10;;;;;;;;;;4879163;29;20471;-60
2022/10/16 05:07:15;;;;;;;4.72;1.40;;;;;;;;;;4879085;29;20076;-60
2022/10/16 05:09:41;;;;;;;2.15;0.90;;;;;;;;;;4879034;29;20045;-60
2022/10/16 05:12:07;;;;;;;3.03;1.00;;;;;;;;;;4908526;29;20045;-60
2022/10/16 05:14:34;;;;;;;1.23;1.08;;;;;;;;;;4878857;29;20048;-61
2022/10/16 05:17:00;;;;;;;3.17;1.05;;;;;;;;;;4878907;29;20057;-60
2022/10/16 05:19:26;;;;;;;4.93;2.42;;;;;;;;;;4879076;29;20190;-61
2022/10/16 05:21:54;;;;;;;3.88;1.73;;;;;;;;;;4878976;29;20081;-60
2022/10/16 05:24:20;;;;;;;3.80;1.13;;;;;;;;;;4878597;29;20087;-60
2022/10/16 05:26:47;;;;;;;4.32;1.40;;;;;;;;;;4878793;29;20076;-60
2022/10/16 05:29:14;;;;;;;3.75;1.08;;;;;;;;;;4878420;29;20120;-60
2022/10/16 05:31:40;;;;;;;2.88;1.05;;;;;;;;;;4878447;29;20487;-60
2022/10/16 05:34:06;;;;;;;5.18;1.33;;;;;;;;;;4878211;29;20119;-60
2022/10/16 05:36:33;;;;;;;3.38;1.10;;;;;;;;;;4877232;29;20076;-60
2022/10/16 05:38:59;;;;;;;2.03;1.40;;;;;;;;;;4878584;29;20123;-61
2022/10/16 05:41:26;;;;;;;6.38;2.03;;;;;;;;;;4878505;29;20093;-61
2022/10/16 05:43:52;;;;;;;5.55;2.92;;;;;;;;;;4877960;29;20051;-60
2022/10/16 05:46:19;;;;;;;4.05;2.17;;;;;;;;;;4877382;29;20052;-61
2022/10/16 05:48:45;;;;;;;3.60;1.90;;;;;;;;;;4878695;29;20127;-61
2022/10/16 05:51:13;;;;;;;3.25;1.30;;;;;;;;;;4877705;29;20450;-61
2022/10/16 05:53:40;;;;;;;2.03;1.08;;;;;;;;;;4877485;29;20120;-59
2022/10/16 05:56:07;;;;;;;4.68;2.10;;;;;;;;;;4878280;29;20049;-60
2022/10/16 05:58:35;;;;;;;3.65;2.55;;;;;;;;;;4878276;29;20653;-60
2022/10/16 06:01:03;;;;;;;4.93;1.50;;;;;;;;;;4878231;29;20053;-60
2022/10/16 06:03:29;;;;;;;3.00;1.60;;;;;;;;;;4877668;29;20060;-61
2022/10/16 06:05:56;;;;;;;8.48;2.20;;;;;;;;;;4878363;29;20045;-60
2022/10/16 06:08:23;;;;;;;2.45;1.20;;;;;;;;;;4878225;29;20049;-59
2022/10/16 06:10:59;;;;;;;2.20;1.05;;;;;;;;;;4878156;29;20041;-62
2022/10/16 06:13:25;;;;;;;3.13;1.40;;;;;;;;;;4877539;29;20041;-60
2022/10/16 06:15:52;;;;;;;2.15;1.20;;;;;;;;;;4878311;29;20045;-60
2022/10/16 06:18:18;;;;;;;65.88;46.03;;;;;;;;;;4878445;29;20558;-60
2022/10/16 06:20:45;;;;;;;4.82;3.25;;;;;;;;;;4878256;29;20056;-61
2022/10/16 06:23:11;;;;;;;2.97;1.80;;;;;;;;;;4877414;29;20113;-60
2022/10/16 06:25:37;;;;;;;2.55;1.25;;;;;;;;;;4877811;29;20045;-60
2022/10/16 06:28:04;;;;;;;3.03;1.55;;;;;;;;;;4878023;29;20060;-61
2022/10/16 06:30:30;;;;;;;4.68;1.20;;;;;;;;;;4878216;29;20518;-60
2022/10/16 06:32:56;;;;;;;3.75;1.58;;;;;;;;;;4877552;29;20132;-60
2022/10/16 06:35:23;;;;;;;1.83;1.60;;;;;;;;;;4878087;29;20041;-60
2022/10/16 06:37:50;;;;;;;4.13;1.95;;;;;;;;;;4878839;29;20097;-61
2022/10/16 06:40:16;;;;;;;4.47;1.98;;;;;;;;;;4878057;29;20053;-60
2022/10/16 06:42:42;;;;;;;3.70;2.03;;;;;;;;;;4876765;29;20041;-60
2022/10/16 06:45:09;;;;;;;3.72;2.70;;;;;;;;;;4877861;29;20052;-60
2022/10/16 06:47:36;;;;;;;2.47;1.95;;;;;;;;;;4877757;29;20108;-60
2022/10/16 06:50:03;;;;;;;2.90;2.08;;;;;;;;;;4876306;29;20089;-60
2022/10/16 06:52:30;;;;;;;4.20;2.25;;;;;;;;;;4876953;29;20049;-60
2022/10/16 06:54:56;;;;;;;6.28;4.38;;;;;;;;;;4891774;29;20041;-60
2022/10/16 06:57:22;;;;;;;7.25;3.40;;;;;;;;;;4877665;29;20116;-60
2022/10/16 06:59:49;;;;;;;3.72;2.58;;;;;;;;;;4907852;29;20122;-60
2022/10/16 07:02:20;;;;;;;6.40;3.13;;;;;;;;;;4905739;29;20510;-59
2022/10/16 07:04:47;;;;;;;6.22;3.03;;;;;;;;;;4879806;29;20045;-60
2022/10/16 07:07:13;;;;;;;7.80;3.55;;;;;;;;;;4881085;29;20093;-59
2022/10/16 07:09:40;;;;;;;4.03;3.60;;;;;;;;;;4880983;29;20041;-60
2022/10/16 07:12:06;;;;;;;5.10;3.72;;;;;;;;;;4880746;29;20045;-60
2022/10/16 07:14:32;;;;;;;6.32;3.33;;;;;;;;;;4881009;29;20546;-60
2022/10/16 07:16:59;;;;;;;4.88;3.58;;;;;;;;;;4881114;29;20447;-60
2022/10/16 07:19:25;;;;;;;4.40;3.35;;;;;;;;;;4881052;29;20041;-60
2022/10/16 07:21:56;;;;;;;3.97;3.13;;;;;;;;;;4881761;29;20494;-60
2022/10/16 07:24:23;;;;;;;6.97;3.15;;;;;;;;;;4910458;29;20045;-60
2022/10/16 07:26:50;;;;;;;5.00;3.00;;;;;;;;;;4880656;29;20045;-60
2022/10/16 07:29:18;;;;;;;6.80;2.72;;;;;;;;;;4879557;29;20410;-60
2022/10/16 07:31:44;;;;;;;6.63;3.20;;;;;;;;;;4894762;29;20045;-60
2022/10/16 07:34:11;;;;;;;4.90;3.00;;;;;;;;;;4879174;29;20574;-60
2022/10/16 07:36:38;;;;;;;3.55;3.00;;;;;;;;;;4879538;29;20049;-60
2022/10/16 07:39:04;;;;;;;4.57;3.22;;;;;;;;;;4880605;29;20554;-61
2022/10/16 07:41:32;;;;;;;7.78;3.65;;;;;;;;;;4880515;29;20049;-61
2022/10/16 07:44:00;;;;;;;4.28;2.85;;;;;;;;;;4879851;29;20049;-61
2022/10/16 07:46:27;;;;;;;3.35;2.70;;;;;;;;;;4880690;29;20052;-61
2022/10/16 07:48:53;;;;;;;4.25;2.60;;;;;;;;;;4879412;29;20047;-61
2022/10/16 07:51:21;;;;;;;5.05;2.25;;;;;;;;;;4880279;29;20394;-61
2022/10/16 07:53:48;;;;;;;4.10;2.28;;;;;;;;;;4879825;29;20041;-61
2022/10/16 07:56:15;;;;;;;5.10;2.05;;;;;;;;;;4880493;29;20041;-61
2022/10/16 07:58:41;;;;;;;5.03;2.50;;;;;;;;;;4880308;29;20056;-61
2022/10/16 08:01:08;;;;;;;3.70;2.60;;;;;;;;;;4879285;29;20108;-61
2022/10/16 08:03:35;;;;;;;4.07;2.10;;;;;;;;;;4909843;29;20052;-60
2022/10/16 08:06:03;;;;;;;2.83;2.53;;;;;;;;;;4910313;29;20049;-61
2022/10/16 08:08:29;;;;;;;4.78;2.60;;;;;;;;;;4880134;29;20041;-61
2022/10/16 08:10:56;;;;;;;4.53;2.40;;;;;;;;;;4910075;29;20045;-60
2022/10/16 08:13:22;;;;;;;5.50;2.40;;;;;;;;;;4879973;29;20076;-61
2022/10/16 08:15:49;;;;;;;5.63;3.08;;;;;;;;;;4909335;29;20049;-61
2022/10/16 08:18:15;;;;;;;5.25;3.40;;;;;;;;;;4880332;29;20053;-61
2022/10/16 08:20:42;;;;;;;4.05;2.90;;;;;;;;;;4880238;29;20060;-61
2022/10/16 08:23:10;;;;;;;6.72;3.60;;;;;;;;;;4879946;29;20060;-62
2022/10/16 08:25:38;;;;;;;3.95;2.88;;;;;;;;;;4880244;29;20045;-62
2022/10/16 08:28:05;;;;;;;5.78;3.65;;;;;;;;;;4879933;29;20055;-61
2022/10/16 08:30:31;;;;;;;4.50;3.05;;;;;;;;;;4880096;29;20045;-62
2022/10/16 08:32:58;;;;;;;3.97;2.63;;;;;;;;;;4879126;29;20077;-61
2022/10/16 08:35:24;;;;;;;4.28;2.67;;;;;;;;;;4880298;29;20074;-62
2022/10/16 08:37:51;;;;;;;4.50;2.75;;;;;;;;;;4880632;29;20494;-61
2022/10/16 08:40:19;;;;;;;4.53;2.90;;;;;;;;;;4880425;29;20112;-61
2022/10/16 08:42:58;;;;;;;4.63;3.38;;;;;;;;;;4910178;29;20049;-62
2022/10/16 08:45:28;;;;;;;5.22;2.58;;;;;;;;;;4879182;29;20581;-62
2022/10/16 08:47:57;;;;;;;4.75;2.85;;;;;;;;;;4880345;29;20126;-62
2022/10/16 08:50:26;;;;;;;6.22;3.05;;;;;;;;;;4880165;29;20044;-61
2022/10/16 08:52:54;;;;;;;5.05;3.05;;;;;;;;;;4879738;29;20077;-61
2022/10/16 08:55:29;;;;;;;5.68;3.03;;;;;;;;;;4880078;29;20075;-61
2022/10/16 08:57:56;;;;;;;4.80;2.42;;;;;;;;;;4894053;29;20049;-61
2022/10/16 09:00:23;;;;;;;5.35;3.25;;;;;;;;;;4909567;29;20456;-61
2022/10/16 09:02:57;;;;;;;3.40;3.10;;;;;;;;;;4878465;29;20049;-62
2022/10/16 09:05:48;;;;;;;7.10;3.10;;;;;;;;;;4878149;29;20061;-61
2022/10/16 09:08:28;;;;;;;11.15;6.22;;;;;;;;;;4878779;29;20128;-62
2022/10/16 09:10:58;;;;;;;8.75;5.10;;;;;;;;;;4878596;29;20049;-61
2022/10/16 09:13:36;;;;;;;6.60;4.50;;;;;;;;;;4877613;29;20477;-61
2022/10/16 09:16:22;;;;;;;3.28;2.78;;;;;;;;;;4878318;29;20049;-62
2022/10/16 09:18:48;;;;;;;5.63;2.47;;;;;;;;;;4892185;29;20049;-62
2022/10/16 09:21:19;;;;;;;28.30;23.42;;;;;;;;;;4876869;29;20510;-62
2022/10/16 09:23:47;;;;;;;7.78;5.03;;;;;;;;;;4877719;29;20112;-62
2022/10/16 09:26:14;;;;;;;5.72;4.35;;;;;;;;;;4876534;29;20056;-62
2022/10/16 09:28:40;;;;;;;9.02;7.07;;;;;;;;;;4908452;29;20136;-62
2022/10/16 09:31:18;;;;;;;5.90;3.65;;;;;;;;;;4878479;29;20037;-62
2022/10/16 09:33:46;;;;;;;4.68;2.22;;;;;;;;;;4876694;29;20439;-61
2022/10/16 09:36:13;;;;;;;2.80;1.90;;;;;;;;;;4877996;29;20366;-62
2022/10/16 09:38:40;;;;;;;3.97;2.10;;;;;;;;;;4892309;29;20053;-63
2022/10/16 09:41:18;;;;;;;3.35;2.28;;;;;;;;;;4877118;29;20116;-62
2022/10/16 09:43:55;;;;;;;3.70;2.45;;;;;;;;;;4877650;29;20088;-62
2022/10/16 09:46:24;;;;;;;5.57;2.13;;;;;;;;;;4908272;29;20049;-63
2022/10/16 09:48:53;;;;;;;3.00;2.17;;;;;;;;;;4877984;29;20097;-62
2022/10/16 09:51:21;;;;;;;3.63;2.25;;;;;;;;;;4877813;29;20406;-63
2022/10/16 09:53:48;;;;;;;3.20;2.67;;;;;;;;;;4876183;29;20047;-62
2022/10/16 09:56:35;;;;;;;2.95;2.65;;;;;;;;;;4878212;29;20045;-62
2022/10/16 09:59:08;;;;;;;3.00;2.00;;;;;;;;;;4876730;29;20048;-64
2022/10/16 10:01:43;;;;;;;3.42;2.13;;;;;;;;;;4877160;29;104270;-62
2022/10/16 10:04:09;;;;;;;2.53;2.33;;;;;;;;;;4888468;29;20513;-62
2022/10/16 10:06:38;;;;;;;6.35;2.60;;;;;;;;;;4877211;29;20575;-63
2022/10/16 10:09:04;;;;;;;4.47;2.55;;;;;;;;;;4878425;29;20052;-62
2022/10/16 10:11:38;;;;;;;4.53;2.25;;;;;;;;;;4878494;29;20121;-63
2022/10/16 10:14:06;;;;;;;3.08;2.40;;;;;;;;;;4877860;29;20128;-64
2022/10/16 10:16:32;;;;;;;2.55;2.35;;;;;;;;;;4892778;29;20045;-62
2022/10/16 10:18:59;;;;;;;4.03;2.42;;;;;;;;;;4892778;29;20045;-62
2022/10/16 10:21:25;;;;;;;2.83;2.20;;;;;;;;;;4878417;29;20451;-62
2022/10/16 10:23:56;;;;;;;4.35;2.45;;;;;;;;;;4877710;29;20049;-62
2022/10/16 10:26:27;;;;;;;2.95;2.35;;;;;;;;;;4908054;29;20053;-61
2022/10/16 10:29:00;;;;;;;5.10;2.50;;;;;;;;;;4878202;29;20060;-61
2022/10/16 10:31:33;;;;;;;4.18;2.50;;;;;;;;;;4878183;29;20495;-62
2022/10/16 10:34:20;;;;;;;7.00;2.70;;;;;;;;;;4877782;29;20048;-62
2022/10/16 10:36:53;;;;;;;5.82;2.75;;;;;;;;;;4870419;29;20593;-62
2022/10/16 10:39:19;;;;;;;4.07;2.45;;;;;;;;;;4893809;29;20072;-60
2022/10/16 10:41:57;;;;;;;3.63;2.20;;;;;;;;;;4881873;29;20052;-61
2022/10/16 10:44:42;;;;;;;4.32;3.00;;;;;;;;;;4881621;29;20055;-61
2022/10/16 10:47:44;;;;;;;3.67;2.67;;;;;;;;;;4881899;29;20045;-61
2022/10/16 10:50:20;;;;;;;4.47;3.20;;;;;;;;;;4860894;29;20507;-62
2022/10/16 10:53:07;;;;;;;3.08;2.38;;;;;;;;;;4874402;29;20057;-63
2022/10/16 10:55:36;;;;;;;3.28;1.85;;;;;;;;;;4881698;29;20049;-62
2022/10/16 10:58:23;;;;;;;2.63;2.13;;;;;;;;;;4911863;29;20116;-61
2022/10/16 11:00:53;;;;;;;3.03;1.98;;;;;;;;;;4911521;29;20049;-61
2022/10/16 11:03:22;;;;;;;4.05;2.33;;;;;;;;;;4910788;29;20041;-62
2022/10/16 11:06:04;;;;;;;3.70;2.08;;;;;;;;;;4881517;29;20097;-61
2022/10/16 11:08:54;;;;;;;6.63;1.98;;;;;;;;;;4880208;29;20045;-61
2022/10/16 11:11:33;;;;;;;4.20;2.45;;;;;;;;;;4876768;29;20053;-62
2022/10/16 11:14:18;;;;;;;4.03;2.17;;;;;;;;;;4910988;29;20399;-62
2022/10/16 11:16:48;;;;;;;5.82;2.08;;;;;;;;;;4881802;29;20041;-62
2022/10/16 11:19:18;;;;;;;4.65;2.33;;;;;;;;;;4912507;29;20108;-62
2022/10/16 11:21:51;;;;;;;4.28;1.92;;;;;;;;;;4882646;29;20092;-61
2022/10/16 11:24:24;;;;;;;3.28;2.13;;;;;;;;;;4881595;29;20041;-62
2022/10/16 11:26:52;;;;;;;3.67;2.38;;;;;;;;;;4880282;29;20053;-61
2022/10/16 11:29:23;;;;;;;4.25;2.42;;;;;;;;;;4880082;29;20109;-62
2022/10/16 11:31:52;;;;;;;3.20;1.90;;;;;;;;;;4880196;29;20041;-62
2022/10/16 11:34:28;;;;;;;2.50;2.10;;;;;;;;;;4880723;29;20057;-62
2022/10/16 11:37:05;;;;;;;2.70;2.15;;;;;;;;;;4881114;29;20387;-61
2022/10/16 11:39:31;;;;;;;2.90;1.90;;;;;;;;;;4895316;29;20045;-61
2022/10/16 11:41:58;;;;;;;4.63;2.13;;;;;;;;;;4880442;29;20056;-61
2022/10/16 11:44:43;;;;;;;3.28;2.35;;;;;;;;;;4880473;29;20053;-61
2022/10/16 11:47:19;;;;;;;2.88;2.38;;;;;;;;;;4894987;29;20066;-60
2022/10/16 11:50:09;;;;;;;2.95;2.35;;;;;;;;;;4880603;29;20101;-62
2022/10/16 11:52:44;;;;;;;3.72;2.78;;;;;;;;;;4910220;29;20140;-62
2022/10/16 11:55:17;;;;;;;6.28;2.05;;;;;;;;;;4881604;29;20116;-62
2022/10/16 11:57:49;;;;;;;2.90;1.77;;;;;;;;;;4880659;29;20041;-64
2022/10/16 12:00:35;;;;;;;2.63;2.17;;;;;;;;;;4910955;29;20449;-64
2022/10/16 12:03:05;;;;;;;3.05;2.20;;;;;;;;;;4879941;29;20077;-64
2022/10/16 12:05:32;;;;;;;2.50;2.13;;;;;;;;;;4880514;29;20052;-63
2022/10/16 12:08:02;;;;;;;3.42;1.98;;;;;;;;;;4910222;29;20439;-63
2022/10/16 12:10:31;;;;;;;2.85;2.25;;;;;;;;;;4879129;29;20105;-64
2022/10/16 12:12:58;;;;;;;3.97;2.30;;;;;;;;;;4879548;29;20048;-65
2022/10/16 12:15:26;;;;;;;3.15;1.90;;;;;;;;;;4910338;29;20055;-64
2022/10/16 12:18:22;;;;;;;2.40;1.80;;;;;;;;;;4880191;29;20073;-64
2022/10/16 12:21:04;;;;;;;4.13;1.65;;;;;;;;;;4910093;29;20053;-63
2022/10/16 12:23:30;;;;;;;3.05;2.30;;;;;;;;;;4879371;29;20093;-63
2022/10/16 12:25:58;;;;;;;2.00;1.80;;;;;;;;;;4910031;29;20045;-64
2022/10/16 12:28:31;;;;;;;2.70;2.00;;;;;;;;;;4878830;29;20049;-64
2022/10/16 12:31:02;;;;;;;6.05;2.38;;;;;;;;;;4879922;29;20136;-63
2022/10/16 12:33:32;;;;;;;4.75;2.08;;;;;;;;;;4878104;29;20455;-64
2022/10/16 12:36:00;;;;;;;6.38;2.00;;;;;;;;;;4879660;29;20505;-63
2022/10/16 12:38:28;;;;;;;3.75;1.70;;;;;;;;;;4879897;29;20041;-63
2022/10/16 12:40:59;;;;;;;2.58;1.75;;;;;;;;;;4909942;29;20180;-63
2022/10/16 12:43:27;;;;;;;2.40;1.70;;;;;;;;;;4879066;29;20692;-66
2022/10/16 12:45:59;;;;;;;4.20;2.00;;;;;;;;;;4879567;29;20053;-66
2022/10/16 12:48:26;;;;;;;2.80;2.60;;;;;;;;;;4879713;29;20080;-65
2022/10/16 12:51:27;;;;;;;5.35;2.25;;;;;;;;;;4878250;29;20049;-66
2022/10/16 12:54:12;;;;;;;2.70;2.15;;;;;;;;;;4878970;29;20744;-66
2022/10/16 12:56:43;;;;;;;4.80;1.90;;;;;;;;;;4909661;29;20045;-65
2022/10/16 12:59:15;;;;;;;4.68;2.08;;;;;;;;;;4879440;29;20490;-65
2022/10/16 13:02:08;;;;;;;4.53;2.40;;;;;;;;;;4908893;29;20105;-64
2022/10/16 13:04:34;;;;;;;4.80;2.17;;;;;;;;;;4863615;29;20093;-64
2022/10/16 13:07:18;;;;;;;4.20;2.30;;;;;;;;;;4879329;29;20049;-64
2022/10/16 13:09:53;;;;;;;2.78;1.83;;;;;;;;;;4879444;29;20105;-64
2022/10/16 13:12:22;;;;;;;5.38;2.67;;;;;;;;;;4908439;29;20052;-64
2022/10/16 13:14:52;;;;;;;3.22;2.25;;;;;;;;;;4879234;29;20049;-65
2022/10/16 13:17:42;;;;;;;3.33;2.13;;;;;;;;;;4909118;29;20464;-65
2022/10/16 13:20:18;;;;;;;3.72;2.40;;;;;;;;;;4860488;29;20617;-64
2022/10/16 13:22:53;;;;;;;3.13;1.90;;;;;;;;;;4877424;29;20475;-64
2022/10/16 13:25:35;;;;;;;2.42;2.22;;;;;;;;;;4877990;29;20147;-64
2022/10/16 13:28:03;;;;;;;2.15;1.98;;;;;;;;;;4879085;29;20124;-64
2022/10/16 13:30:30;;;;;;;3.63;2.17;;;;;;;;;;4877689;29;20057;-64
2022/10/16 13:33:09;;;;;;;3.53;2.33;;;;;;;;;;4892799;29;20048;-64
2022/10/16 13:35:36;;;;;;;3.28;2.10;;;;;;;;;;4879081;29;20109;-64
2022/10/16 13:38:03;;;;;;;5.45;2.05;;;;;;;;;;4877744;29;20164;-64
2022/10/16 13:40:30;;;;;;;2.97;2.15;;;;;;;;;;4877547;29;20056;-64
2022/10/16 13:42:59;;;;;;;3.45;2.47;;;;;;;;;;4877000;29;20140;-64
2022/10/16 13:45:26;;;;;;;2.80;2.50;;;;;;;;;;4878699;29;20418;-65
2022/10/16 13:48:05;;;;;;;5.47;2.55;;;;;;;;;;4878556;29;20407;-65
2022/10/16 13:50:32;;;;;;;5.07;3.78;;;;;;;;;;4877542;29;20052;-65
2022/10/16 13:53:05;;;;;;;5.72;3.55;;;;;;;;;;4907768;29;20045;-65
2022/10/16 13:55:32;;;;;;;;;;;;;;;;;;4893432;29;20048;-64
2022/10/16 13:58:07;;;;;;;4.60;2.72;;;;;;;;;;4877272;29;20373;-66
2022/10/16 14:00:33;;;;;;;3.63;2.72;;;;;;;;;;4878653;29;20045;-65
2022/10/16 14:03:20;;;;;;;5.85;2.47;;;;;;;;;;4907611;29;20140;-66
2022/10/16 14:05:54;;;;;;;3.90;2.53;;;;;;;;;;4878277;29;20065;-66
2022/10/16 14:08:22;;;;;;;5.32;2.40;;;;;;;;;;4877193;29;20040;-66
2022/10/16 14:10:50;;;;;;;8.20;2.42;;;;;;;;;;4878523;29;20052;-66
2022/10/16 14:13:18;;;;;;;7.45;2.30;;;;;;;;;;4876963;29;20486;-65
2022/10/16 14:15:47;;;;;;;2.83;2.15;;;;;;;;;;4877368;29;20126;-65
2022/10/16 14:18:18;;;;;;;4.80;2.50;;;;;;;;;;4892476;29;20060;-65
2022/10/16 14:20:45;;;;;;;2.90;2.60;;;;;;;;;;4908200;29;20571;-64
2022/10/16 14:23:22;;;;;;;5.75;2.58;;;;;;;;;;4877697;29;20053;-64
2022/10/16 14:25:48;;;;;;;4.18;2.55;;;;;;;;;;4877058;29;20502;-64
2022/10/16 14:28:22;;;;;;;4.70;2.13;;;;;;;;;;4908172;29;20037;-65
2022/10/16 14:30:50;;;;;;;5.13;1.85;;;;;;;;;;4878257;29;20052;-65
2022/10/16 14:33:24;;;;;;;6.50;3.00;;;;;;;;;;4877406;29;20041;-65
2022/10/16 14:36:02;;;;;;;6.70;2.60;;;;;;;;;;4878094;29;20081;-65
2022/10/16 14:38:29;;;;;;;4.30;2.60;;;;;;;;;;4908219;29;20053;-65
2022/10/16 14:40:56;;;;;;;4.10;2.55;;;;;;;;;;4876971;29;20053;-65
2022/10/16 14:43:32;;;;;;;4.05;2.28;;;;;;;;;;4877337;29;20049;-65
2022/10/16 14:45:59;;;;;;;5.53;1.92;;;;;;;;;;4876794;29;20053;-65
2022/10/16 14:48:25;;;;;;;4.55;2.22;;;;;;;;;;4877987;29;20045;-64
2022/10/16 14:50:52;;;;;;;9.50;3.72;;;;;;;;;;4878166;29;20049;-64
2022/10/16 14:53:18;;;;;;;5.93;2.58;;;;;;;;;;4877167;29;20093;-64
2022/10/16 14:55:45;;;;;;;3.70;3.22;;;;;;;;;;4876708;29;20097;-64
2022/10/16 14:58:14;;;;;;;6.22;4.32;;;;;;;;;;4877973;29;20172;-64
2022/10/16 15:00:41;;;;;;;5.50;5.00;;;;;;;;;;4877882;29;20447;-64
2022/10/16 15:03:07;;;;;;;3.50;3.20;;;;;;;;;;4877258;29;20105;-65
2022/10/16 15:05:34;;;;;;;3.55;2.38;;;;;;;;;;4908006;29;20053;-65